sensor_id;sensor_type;location;lat;lon;timestamp;P1;durP1;ratioP1;P2;durP2;ratioP2
22435;SDS011;11385;50.822;4.324;2024-01-25T00:00:51;29.00;;;5.25;;
22435;SDS011;11385;50.822;4.324;2024-01-25T00:03:17;32.60;;;5.90;;
22435;SDS011;11385;50.822;4.324;2024-01-25T00:05:44;33.42;;;4.85;;
22435;SDS011;11385;50.822;4.324;2024-01-25T00:08:10;30.70;;;6.35;;
22435;SDS011;11385;50.822;4.324;2024-01-25T00:10:37;31.75;;;4.75;;
22435;SDS011;11385;50.822;4.324;2024-01-25T00:13:05;34.00;;;4.55;;
22435;SDS011;11385;50.822;4.324;2024-01-25T00:15:32;27.93;;;5.65;;
22435;SDS011;11385;50.822;4.324;2024-01-25T00:17:59;35.05;;;5.37;;
22435;SDS011;11385;50.822;4.324;2024-01-25T00:20:25;32.98;;;6.35;;
22435;SDS011;11385;50.822;4.324;2024-01-25T00:22:52;39.13;;;6.67;;
22435;SDS011;11385;50.822;4.324;2024-01-25T00:25:19;33.40;;;5.50;;
22435;SDS011;11385;50.822;4.324;2024-01-25T00:27:45;32.78;;;5.50;;
22435;SDS011;11385;50.822;4.324;2024-01-25T00:30:13;39.15;;;8.28;;
22435;SDS011;11385;50.822;4.324;2024-01-25T00:32:41;34.73;;;6.25;;
22435;SDS011;11385;50.822;4.324;2024-01-25T00:35:08;38.17;;;6.45;;
22435;SDS011;11385;50.822;4.324;2024-01-25T00:37:36;36.63;;;6.37;;
22435;SDS011;11385;50.822;4.324;2024-01-25T00:40:04;38.30;;;5.70;;
22435;SDS011;11385;50.822;4.324;2024-01-25T00:42:31;30.12;;;5.10;;
22435;SDS011;11385;50.822;4.324;2024-01-25T00:45:02;28.75;;;4.78;;
22435;SDS011;11385;50.822;4.324;2024-01-25T00:47:30;25.50;;;5.35;;
22435;SDS011;11385;50.822;4.324;2024-01-25T00:49:57;27.20;;;5.65;;
22435;SDS011;11385;50.822;4.324;2024-01-25T00:52:25;28.67;;;5.58;;
22435;SDS011;11385;50.822;4.324;2024-01-25T00:54:52;33.08;;;5.30;;
22435;SDS011;11385;50.822;4.324;2024-01-25T00:57:19;22.98;;;5.00;;
22435;SDS011;11385;50.822;4.324;2024-01-25T00:59:46;33.45;;;5.65;;
22435;SDS011;11385;50.822;4.324;2024-01-25T01:02:13;30.72;;;4.95;;
22435;SDS011;11385;50.822;4.324;2024-01-25T01:04:40;33.98;;;4.80;;
22435;SDS011;11385;50.822;4.324;2024-01-25T01:07:07;26.25;;;5.35;;
22435;SDS011;11385;50.822;4.324;2024-01-25T01:09:34;28.47;;;5.55;;
22435;SDS011;11385;50.822;4.324;2024-01-25T01:12:01;30.88;;;5.17;;
22435;SDS011;11385;50.822;4.324;2024-01-25T01:14:28;31.62;;;4.75;;
22435;SDS011;11385;50.822;4.324;2024-01-25T01:16:54;27.07;;;4.72;;
22435;SDS011;11385;50.822;4.324;2024-01-25T01:19:21;31.17;;;5.70;;
22435;SDS011;11385;50.822;4.324;2024-01-25T01:21:48;34.78;;;6.45;;
22435;SDS011;11385;50.822;4.324;2024-01-25T01:24:14;36.85;;;5.30;;
22435;SDS011;11385;50.822;4.324;2024-01-25T01:26:41;30.90;;;6.10;;
22435;SDS011;11385;50.822;4.324;2024-01-25T01:29:07;32.53;;;6.00;;
22435;SDS011;11385;50.822;4.324;2024-01-25T01:31:34;36.03;;;5.67;;
22435;SDS011;11385;50.822;4.324;2024-01-25T01:34:01;27.50;;;5.30;;
22435;SDS011;11385;50.822;4.324;2024-01-25T01:36:28;29.45;;;5.83;;
22435;SDS011;11385;50.822;4.324;2024-01-25T01:38:57;30.02;;;5.10;;
22435;SDS011;11385;50.822;4.324;2024-01-25T01:41:23;25.97;;;5.35;;
22435;SDS011;11385;50.822;4.324;2024-01-25T01:43:52;33.18;;;5.90;;
22435;SDS011;11385;50.822;4.324;2024-01-25T01:46:25;34.75;;;6.40;;
22435;SDS011;11385;50.822;4.324;2024-01-25T01:48:55;30.05;;;5.60;;
22435;SDS011;11385;50.822;4.324;2024-01-25T01:51:21;29.65;;;5.85;;
22435;SDS011;11385;50.822;4.324;2024-01-25T01:53:48;33.53;;;6.47;;
22435;SDS011;11385;50.822;4.324;2024-01-25T01:56:16;29.20;;;5.03;;
22435;SDS011;11385;50.822;4.324;2024-01-25T01:58:43;19.77;;;4.47;;
22435;SDS011;11385;50.822;4.324;2024-01-25T02:01:12;34.03;;;6.25;;
22435;SDS011;11385;50.822;4.324;2024-01-25T02:03:39;32.53;;;5.62;;
22435;SDS011;11385;50.822;4.324;2024-01-25T02:06:06;32.03;;;5.60;;
22435;SDS011;11385;50.822;4.324;2024-01-25T02:08:33;34.63;;;5.72;;
22435;SDS011;11385;50.822;4.324;2024-01-25T02:11:00;28.92;;;5.90;;
22435;SDS011;11385;50.822;4.324;2024-01-25T02:13:28;39.27;;;6.12;;
22435;SDS011;11385;50.822;4.324;2024-01-25T02:15:54;34.95;;;6.35;;
22435;SDS011;11385;50.822;4.324;2024-01-25T02:18:21;24.70;;;5.47;;
22435;SDS011;11385;50.822;4.324;2024-01-25T02:20:48;31.80;;;4.47;;
22435;SDS011;11385;50.822;4.324;2024-01-25T02:23:14;24.75;;;4.65;;
22435;SDS011;11385;50.822;4.324;2024-01-25T02:25:41;31.55;;;5.53;;
22435;SDS011;11385;50.822;4.324;2024-01-25T02:28:08;33.83;;;5.15;;
22435;SDS011;11385;50.822;4.324;2024-01-25T02:30:34;30.77;;;4.80;;
22435;SDS011;11385;50.822;4.324;2024-01-25T02:33:01;35.00;;;5.10;;
22435;SDS011;11385;50.822;4.324;2024-01-25T02:35:27;39.33;;;6.00;;
22435;SDS011;11385;50.822;4.324;2024-01-25T02:37:54;25.97;;;5.00;;
22435;SDS011;11385;50.822;4.324;2024-01-25T02:40:21;27.27;;;4.72;;
22435;SDS011;11385;50.822;4.324;2024-01-25T02:42:47;24.00;;;5.08;;
22435;SDS011;11385;50.822;4.324;2024-01-25T02:45:14;31.35;;;5.58;;
22435;SDS011;11385;50.822;4.324;2024-01-25T02:47:41;31.48;;;5.35;;
22435;SDS011;11385;50.822;4.324;2024-01-25T02:50:08;29.75;;;5.80;;
22435;SDS011;11385;50.822;4.324;2024-01-25T02:52:34;32.98;;;5.35;;
22435;SDS011;11385;50.822;4.324;2024-01-25T02:55:01;34.60;;;6.10;;
22435;SDS011;11385;50.822;4.324;2024-01-25T02:57:28;37.10;;;5.80;;
22435;SDS011;11385;50.822;4.324;2024-01-25T02:59:57;21.60;;;5.58;;
22435;SDS011;11385;50.822;4.324;2024-01-25T03:02:23;30.52;;;6.15;;
22435;SDS011;11385;50.822;4.324;2024-01-25T03:04:50;33.78;;;5.05;;
22435;SDS011;11385;50.822;4.324;2024-01-25T03:07:17;34.85;;;4.35;;
22435;SDS011;11385;50.822;4.324;2024-01-25T03:09:44;32.93;;;5.92;;
22435;SDS011;11385;50.822;4.324;2024-01-25T03:12:11;30.70;;;5.62;;
22435;SDS011;11385;50.822;4.324;2024-01-25T03:14:37;35.33;;;5.83;;
22435;SDS011;11385;50.822;4.324;2024-01-25T03:17:04;27.40;;;4.15;;
22435;SDS011;11385;50.822;4.324;2024-01-25T03:19:30;37.90;;;5.75;;
22435;SDS011;11385;50.822;4.324;2024-01-25T03:21:57;35.98;;;6.08;;
22435;SDS011;11385;50.822;4.324;2024-01-25T03:24:27;29.23;;;4.92;;
22435;SDS011;11385;50.822;4.324;2024-01-25T03:26:53;26.97;;;4.85;;
22435;SDS011;11385;50.822;4.324;2024-01-25T03:29:20;32.38;;;5.47;;
22435;SDS011;11385;50.822;4.324;2024-01-25T03:31:47;30.12;;;4.62;;
22435;SDS011;11385;50.822;4.324;2024-01-25T03:34:13;27.75;;;5.62;;
22435;SDS011;11385;50.822;4.324;2024-01-25T03:36:40;31.25;;;5.75;;
22435;SDS011;11385;50.822;4.324;2024-01-25T03:39:07;32.40;;;5.30;;
22435;SDS011;11385;50.822;4.324;2024-01-25T03:41:33;38.02;;;11.40;;
22435;SDS011;11385;50.822;4.324;2024-01-25T03:44:00;35.03;;;6.67;;
22435;SDS011;11385;50.822;4.324;2024-01-25T03:46:27;36.20;;;5.60;;
22435;SDS011;11385;50.822;4.324;2024-01-25T03:48:53;34.70;;;5.67;;
22435;SDS011;11385;50.822;4.324;2024-01-25T03:51:20;28.17;;;4.97;;
22435;SDS011;11385;50.822;4.324;2024-01-25T03:53:49;25.85;;;4.90;;
22435;SDS011;11385;50.822;4.324;2024-01-25T03:56:15;21.27;;;4.75;;
22435;SDS011;11385;50.822;4.324;2024-01-25T03:58:43;32.48;;;5.53;;
22435;SDS011;11385;50.822;4.324;2024-01-25T04:01:10;36.33;;;5.37;;
22435;SDS011;11385;50.822;4.324;2024-01-25T04:03:37;29.82;;;4.97;;
22435;SDS011;11385;50.822;4.324;2024-01-25T04:06:04;23.10;;;4.08;;
22435;SDS011;11385;50.822;4.324;2024-01-25T04:08:30;27.65;;;4.40;;
22435;SDS011;11385;50.822;4.324;2024-01-25T04:10:57;40.43;;;4.87;;
22435;SDS011;11385;50.822;4.324;2024-01-25T04:13:24;26.12;;;4.58;;
22435;SDS011;11385;50.822;4.324;2024-01-25T04:15:50;34.70;;;5.55;;
22435;SDS011;11385;50.822;4.324;2024-01-25T04:18:17;22.90;;;3.95;;
22435;SDS011;11385;50.822;4.324;2024-01-25T04:20:43;27.40;;;5.08;;
22435;SDS011;11385;50.822;4.324;2024-01-25T04:23:10;30.92;;;4.78;;
22435;SDS011;11385;50.822;4.324;2024-01-25T04:25:37;28.25;;;4.65;;
22435;SDS011;11385;50.822;4.324;2024-01-25T04:28:03;28.07;;;5.05;;
22435;SDS011;11385;50.822;4.324;2024-01-25T04:30:32;35.08;;;5.50;;
22435;SDS011;11385;50.822;4.324;2024-01-25T04:32:58;25.23;;;4.37;;
22435;SDS011;11385;50.822;4.324;2024-01-25T04:35:25;23.67;;;4.92;;
22435;SDS011;11385;50.822;4.324;2024-01-25T04:37:51;36.08;;;4.97;;
22435;SDS011;11385;50.822;4.324;2024-01-25T04:40:18;27.80;;;4.47;;
22435;SDS011;11385;50.822;4.324;2024-01-25T04:42:45;28.05;;;4.28;;
22435;SDS011;11385;50.822;4.324;2024-01-25T04:45:11;29.57;;;4.85;;
22435;SDS011;11385;50.822;4.324;2024-01-25T04:47:38;31.70;;;5.12;;
22435;SDS011;11385;50.822;4.324;2024-01-25T04:50:05;21.85;;;4.60;;
22435;SDS011;11385;50.822;4.324;2024-01-25T04:52:32;21.70;;;5.10;;
22435;SDS011;11385;50.822;4.324;2024-01-25T04:54:59;27.85;;;5.28;;
22435;SDS011;11385;50.822;4.324;2024-01-25T04:57:25;25.95;;;5.28;;
22435;SDS011;11385;50.822;4.324;2024-01-25T04:59:52;22.65;;;5.60;;
22435;SDS011;11385;50.822;4.324;2024-01-25T05:02:19;33.90;;;4.97;;
22435;SDS011;11385;50.822;4.324;2024-01-25T05:04:45;31.30;;;5.37;;
22435;SDS011;11385;50.822;4.324;2024-01-25T05:07:12;27.73;;;4.70;;
22435;SDS011;11385;50.822;4.324;2024-01-25T05:09:38;28.83;;;5.40;;
22435;SDS011;11385;50.822;4.324;2024-01-25T05:12:05;30.55;;;5.08;;
22435;SDS011;11385;50.822;4.324;2024-01-25T05:14:32;33.38;;;6.00;;
22435;SDS011;11385;50.822;4.324;2024-01-25T05:16:59;31.48;;;4.78;;
22435;SDS011;11385;50.822;4.324;2024-01-25T05:19:25;37.75;;;5.08;;
22435;SDS011;11385;50.822;4.324;2024-01-25T05:21:52;28.65;;;5.33;;
22435;SDS011;11385;50.822;4.324;2024-01-25T05:24:19;28.90;;;4.72;;
22435;SDS011;11385;50.822;4.324;2024-01-25T05:26:46;27.00;;;4.78;;
22435;SDS011;11385;50.822;4.324;2024-01-25T05:29:12;30.52;;;4.72;;
22435;SDS011;11385;50.822;4.324;2024-01-25T05:31:39;35.55;;;4.60;;
22435;SDS011;11385;50.822;4.324;2024-01-25T05:34:06;28.02;;;4.87;;
22435;SDS011;11385;50.822;4.324;2024-01-25T05:36:32;32.17;;;5.05;;
22435;SDS011;11385;50.822;4.324;2024-01-25T05:38:59;31.65;;;5.67;;
22435;SDS011;11385;50.822;4.324;2024-01-25T05:41:26;20.52;;;4.05;;
22435;SDS011;11385;50.822;4.324;2024-01-25T05:43:52;21.12;;;3.92;;
22435;SDS011;11385;50.822;4.324;2024-01-25T05:46:20;28.42;;;5.17;;
22435;SDS011;11385;50.822;4.324;2024-01-25T05:48:46;29.42;;;4.30;;
22435;SDS011;11385;50.822;4.324;2024-01-25T05:51:13;26.17;;;4.30;;
22435;SDS011;11385;50.822;4.324;2024-01-25T05:53:40;26.55;;;4.55;;
22435;SDS011;11385;50.822;4.324;2024-01-25T05:56:06;24.40;;;4.83;;
22435;SDS011;11385;50.822;4.324;2024-01-25T05:58:33;31.52;;;5.03;;
22435;SDS011;11385;50.822;4.324;2024-01-25T06:01:00;26.68;;;5.25;;
22435;SDS011;11385;50.822;4.324;2024-01-25T06:03:26;25.48;;;4.70;;
22435;SDS011;11385;50.822;4.324;2024-01-25T06:05:55;23.62;;;5.08;;
22435;SDS011;11385;50.822;4.324;2024-01-25T06:08:21;31.48;;;5.78;;
22435;SDS011;11385;50.822;4.324;2024-01-25T06:10:48;23.80;;;5.37;;
22435;SDS011;11385;50.822;4.324;2024-01-25T06:13:15;31.60;;;5.12;;
22435;SDS011;11385;50.822;4.324;2024-01-25T06:15:42;25.62;;;5.40;;
22435;SDS011;11385;50.822;4.324;2024-01-25T06:18:09;27.70;;;5.80;;
22435;SDS011;11385;50.822;4.324;2024-01-25T06:20:35;30.75;;;5.33;;
22435;SDS011;11385;50.822;4.324;2024-01-25T06:23:02;23.02;;;5.45;;
22435;SDS011;11385;50.822;4.324;2024-01-25T06:25:28;25.32;;;4.37;;
22435;SDS011;11385;50.822;4.324;2024-01-25T06:27:56;29.20;;;5.70;;
22435;SDS011;11385;50.822;4.324;2024-01-25T06:30:24;33.20;;;7.12;;
22435;SDS011;11385;50.822;4.324;2024-01-25T06:32:51;28.30;;;6.03;;
22435;SDS011;11385;50.822;4.324;2024-01-25T06:35:17;40.05;;;6.17;;
22435;SDS011;11385;50.822;4.324;2024-01-25T06:37:44;31.95;;;5.75;;
22435;SDS011;11385;50.822;4.324;2024-01-25T06:40:11;26.55;;;6.45;;
22435;SDS011;11385;50.822;4.324;2024-01-25T06:42:37;37.38;;;6.67;;
22435;SDS011;11385;50.822;4.324;2024-01-25T06:45:04;35.05;;;7.60;;
22435;SDS011;11385;50.822;4.324;2024-01-25T06:47:31;42.88;;;12.47;;
22435;SDS011;11385;50.822;4.324;2024-01-25T06:49:58;36.75;;;9.28;;
22435;SDS011;11385;50.822;4.324;2024-01-25T06:52:24;60.85;;;23.50;;
22435;SDS011;11385;50.822;4.324;2024-01-25T06:54:51;34.23;;;10.98;;
22435;SDS011;11385;50.822;4.324;2024-01-25T06:57:17;43.78;;;11.18;;
22435;SDS011;11385;50.822;4.324;2024-01-25T06:59:44;30.82;;;10.40;;
22435;SDS011;11385;50.822;4.324;2024-01-25T07:02:11;31.25;;;9.68;;
22435;SDS011;11385;50.822;4.324;2024-01-25T07:04:37;32.20;;;8.10;;
22435;SDS011;11385;50.822;4.324;2024-01-25T07:07:06;45.23;;;9.73;;
22435;SDS011;11385;50.822;4.324;2024-01-25T07:09:33;35.25;;;8.13;;
22435;SDS011;11385;50.822;4.324;2024-01-25T07:12:00;38.38;;;8.80;;
22435;SDS011;11385;50.822;4.324;2024-01-25T07:14:26;30.95;;;9.38;;
22435;SDS011;11385;50.822;4.324;2024-01-25T07:16:53;37.55;;;9.03;;
22435;SDS011;11385;50.822;4.324;2024-01-25T07:19:19;41.45;;;9.50;;
22435;SDS011;11385;50.822;4.324;2024-01-25T07:21:46;51.18;;;9.95;;
22435;SDS011;11385;50.822;4.324;2024-01-25T07:24:13;40.23;;;9.00;;
22435;SDS011;11385;50.822;4.324;2024-01-25T07:26:39;36.45;;;9.65;;
22435;SDS011;11385;50.822;4.324;2024-01-25T07:29:06;36.28;;;9.50;;
22435;SDS011;11385;50.822;4.324;2024-01-25T07:31:33;37.42;;;10.95;;
22435;SDS011;11385;50.822;4.324;2024-01-25T07:33:59;34.38;;;9.90;;
22435;SDS011;11385;50.822;4.324;2024-01-25T07:36:26;27.62;;;9.38;;
22435;SDS011;11385;50.822;4.324;2024-01-25T07:38:52;34.53;;;9.50;;
22435;SDS011;11385;50.822;4.324;2024-01-25T07:41:19;36.90;;;9.60;;
22435;SDS011;11385;50.822;4.324;2024-01-25T07:43:46;30.95;;;10.00;;
22435;SDS011;11385;50.822;4.324;2024-01-25T07:46:12;25.92;;;7.78;;
22435;SDS011;11385;50.822;4.324;2024-01-25T07:48:40;28.27;;;9.70;;
22435;SDS011;11385;50.822;4.324;2024-01-25T07:51:11;26.15;;;9.93;;
22435;SDS011;11385;50.822;4.324;2024-01-25T07:53:38;26.17;;;9.90;;
22435;SDS011;11385;50.822;4.324;2024-01-25T07:56:07;23.25;;;8.93;;
22435;SDS011;11385;50.822;4.324;2024-01-25T07:58:35;56.35;;;26.50;;
22435;SDS011;11385;50.822;4.324;2024-01-25T08:01:03;52.70;;;27.32;;
22435;SDS011;11385;50.822;4.324;2024-01-25T08:03:32;57.88;;;24.37;;
22435;SDS011;11385;50.822;4.324;2024-01-25T08:05:59;32.15;;;10.63;;
22435;SDS011;11385;50.822;4.324;2024-01-25T08:08:26;24.35;;;9.30;;
22435;SDS011;11385;50.822;4.324;2024-01-25T08:10:53;26.33;;;9.85;;
22435;SDS011;11385;50.822;4.324;2024-01-25T08:13:20;28.67;;;9.80;;
22435;SDS011;11385;50.822;4.324;2024-01-25T08:15:47;27.77;;;9.80;;
22435;SDS011;11385;50.822;4.324;2024-01-25T08:18:13;27.90;;;9.68;;
22435;SDS011;11385;50.822;4.324;2024-01-25T08:20:40;28.32;;;9.65;;
22435;SDS011;11385;50.822;4.324;2024-01-25T08:23:07;30.70;;;10.95;;
22435;SDS011;11385;50.822;4.324;2024-01-25T08:25:34;22.17;;;8.08;;
22435;SDS011;11385;50.822;4.324;2024-01-25T08:28:01;32.00;;;9.25;;
22435;SDS011;11385;50.822;4.324;2024-01-25T08:30:28;22.65;;;9.60;;
22435;SDS011;11385;50.822;4.324;2024-01-25T08:32:55;26.12;;;9.53;;
22435;SDS011;11385;50.822;4.324;2024-01-25T08:35:21;25.62;;;8.98;;
22435;SDS011;11385;50.822;4.324;2024-01-25T08:37:48;27.50;;;9.80;;
22435;SDS011;11385;50.822;4.324;2024-01-25T08:40:16;21.23;;;8.83;;
22435;SDS011;11385;50.822;4.324;2024-01-25T08:42:43;31.97;;;9.65;;
22435;SDS011;11385;50.822;4.324;2024-01-25T08:45:09;22.07;;;8.38;;
22435;SDS011;11385;50.822;4.324;2024-01-25T08:47:36;20.77;;;7.78;;
22435;SDS011;11385;50.822;4.324;2024-01-25T08:50:03;19.52;;;7.85;;
22435;SDS011;11385;50.822;4.324;2024-01-25T08:52:32;19.62;;;8.78;;
22435;SDS011;11385;50.822;4.324;2024-01-25T08:55:00;25.72;;;8.80;;
22435;SDS011;11385;50.822;4.324;2024-01-25T08:57:26;21.15;;;8.60;;
22435;SDS011;11385;50.822;4.324;2024-01-25T08:59:53;23.75;;;8.33;;
22435;SDS011;11385;50.822;4.324;2024-01-25T09:02:20;22.40;;;8.73;;
22435;SDS011;11385;50.822;4.324;2024-01-25T09:04:49;27.02;;;8.68;;
22435;SDS011;11385;50.822;4.324;2024-01-25T09:07:15;26.30;;;8.43;;
22435;SDS011;11385;50.822;4.324;2024-01-25T09:09:42;25.75;;;9.40;;
22435;SDS011;11385;50.822;4.324;2024-01-25T09:12:08;40.60;;;18.27;;
22435;SDS011;11385;50.822;4.324;2024-01-25T09:14:37;61.33;;;32.48;;
22435;SDS011;11385;50.822;4.324;2024-01-25T09:17:03;78.02;;;37.58;;
22435;SDS011;11385;50.822;4.324;2024-01-25T09:19:30;46.73;;;19.67;;
22435;SDS011;11385;50.822;4.324;2024-01-25T09:21:57;30.37;;;11.20;;
22435;SDS011;11385;50.822;4.324;2024-01-25T09:24:26;27.37;;;10.00;;
22435;SDS011;11385;50.822;4.324;2024-01-25T09:26:52;34.33;;;9.85;;
22435;SDS011;11385;50.822;4.324;2024-01-25T09:29:19;36.73;;;10.50;;
22435;SDS011;11385;50.822;4.324;2024-01-25T09:31:45;36.45;;;10.98;;
22435;SDS011;11385;50.822;4.324;2024-01-25T09:34:12;36.15;;;10.82;;
22435;SDS011;11385;50.822;4.324;2024-01-25T09:36:39;38.50;;;12.25;;
22435;SDS011;11385;50.822;4.324;2024-01-25T09:39:05;39.45;;;12.55;;
22435;SDS011;11385;50.822;4.324;2024-01-25T09:41:34;38.42;;;12.78;;
22435;SDS011;11385;50.822;4.324;2024-01-25T09:44:00;43.08;;;14.10;;
22435;SDS011;11385;50.822;4.324;2024-01-25T09:46:27;48.95;;;14.05;;
22435;SDS011;11385;50.822;4.324;2024-01-25T09:48:54;45.50;;;13.70;;
22435;SDS011;11385;50.822;4.324;2024-01-25T09:51:21;37.73;;;13.20;;
22435;SDS011;11385;50.822;4.324;2024-01-25T09:53:50;32.95;;;13.10;;
22435;SDS011;11385;50.822;4.324;2024-01-25T09:56:19;43.52;;;13.40;;
22435;SDS011;11385;50.822;4.324;2024-01-25T09:58:46;43.28;;;12.93;;
22435;SDS011;11385;50.822;4.324;2024-01-25T10:01:15;45.05;;;14.60;;
22435;SDS011;11385;50.822;4.324;2024-01-25T10:03:42;44.25;;;13.48;;
22435;SDS011;11385;50.822;4.324;2024-01-25T10:06:11;41.25;;;14.07;;
22435;SDS011;11385;50.822;4.324;2024-01-25T10:08:38;45.33;;;13.68;;
22435;SDS011;11385;50.822;4.324;2024-01-25T10:11:05;39.67;;;14.00;;
22435;SDS011;11385;50.822;4.324;2024-01-25T10:16:10;43.60;;;13.90;;
22435;SDS011;11385;50.822;4.324;2024-01-25T10:18:40;33.65;;;12.58;;
22435;SDS011;11385;50.822;4.324;2024-01-25T10:21:09;45.83;;;12.90;;
22435;SDS011;11385;50.822;4.324;2024-01-25T10:23:36;41.90;;;13.50;;
22435;SDS011;11385;50.822;4.324;2024-01-25T10:26:03;41.90;;;12.75;;
22435;SDS011;11385;50.822;4.324;2024-01-25T10:28:30;39.75;;;12.15;;
22435;SDS011;11385;50.822;4.324;2024-01-25T10:30:59;35.40;;;12.25;;
22435;SDS011;11385;50.822;4.324;2024-01-25T10:33:27;38.90;;;12.28;;
22435;SDS011;11385;50.822;4.324;2024-01-25T10:35:55;37.28;;;13.40;;
22435;SDS011;11385;50.822;4.324;2024-01-25T10:38:24;38.15;;;11.18;;
22435;SDS011;11385;50.822;4.324;2024-01-25T10:40:52;32.67;;;11.12;;
22435;SDS011;11385;50.822;4.324;2024-01-25T10:43:20;30.57;;;11.15;;
22435;SDS011;11385;50.822;4.324;2024-01-25T10:45:46;27.35;;;9.05;;
22435;SDS011;11385;50.822;4.324;2024-01-25T10:48:14;29.77;;;9.65;;
22435;SDS011;11385;50.822;4.324;2024-01-25T10:50:40;27.30;;;9.30;;
22435;SDS011;11385;50.822;4.324;2024-01-25T10:53:08;23.18;;;9.35;;
22435;SDS011;11385;50.822;4.324;2024-01-25T10:55:36;26.85;;;7.92;;
22435;SDS011;11385;50.822;4.324;2024-01-25T10:58:02;31.33;;;9.38;;
22435;SDS011;11385;50.822;4.324;2024-01-25T11:00:31;27.22;;;9.38;;
22435;SDS011;11385;50.822;4.324;2024-01-25T11:03:00;25.02;;;7.17;;
22435;SDS011;11385;50.822;4.324;2024-01-25T11:05:27;23.60;;;7.37;;
22435;SDS011;11385;50.822;4.324;2024-01-25T11:07:55;37.67;;;14.90;;
22435;SDS011;11385;50.822;4.324;2024-01-25T11:10:23;27.52;;;10.88;;
22435;SDS011;11385;50.822;4.324;2024-01-25T11:12:59;30.15;;;9.10;;
22435;SDS011;11385;50.822;4.324;2024-01-25T11:15:30;18.75;;;7.50;;
22435;SDS011;11385;50.822;4.324;2024-01-25T11:17:58;19.57;;;7.70;;
22435;SDS011;11385;50.822;4.324;2024-01-25T11:20:27;29.75;;;8.45;;
22435;SDS011;11385;50.822;4.324;2024-01-25T11:22:56;27.15;;;7.40;;
22435;SDS011;11385;50.822;4.324;2024-01-25T11:25:28;20.75;;;6.40;;
22435;SDS011;11385;50.822;4.324;2024-01-25T11:30:23;29.30;;;6.80;;
22435;SDS011;11385;50.822;4.324;2024-01-25T11:32:51;22.07;;;6.87;;
22435;SDS011;11385;50.822;4.324;2024-01-25T11:35:17;21.55;;;6.85;;
22435;SDS011;11385;50.822;4.324;2024-01-25T11:37:45;29.57;;;8.35;;
22435;SDS011;11385;50.822;4.324;2024-01-25T11:40:13;21.68;;;7.05;;
22435;SDS011;11385;50.822;4.324;2024-01-25T11:42:42;26.50;;;8.00;;
22435;SDS011;11385;50.822;4.324;2024-01-25T11:45:10;22.30;;;8.23;;
22435;SDS011;11385;50.822;4.324;2024-01-25T11:47:38;34.88;;;11.05;;
22435;SDS011;11385;50.822;4.324;2024-01-25T11:50:05;34.65;;;16.65;;
22435;SDS011;11385;50.822;4.324;2024-01-25T11:52:33;30.17;;;14.05;;
22435;SDS011;11385;50.822;4.324;2024-01-25T11:55:01;25.25;;;9.13;;
22435;SDS011;11385;50.822;4.324;2024-01-25T11:57:36;22.40;;;8.20;;
22435;SDS011;11385;50.822;4.324;2024-01-25T12:00:07;31.73;;;8.90;;
22435;SDS011;11385;50.822;4.324;2024-01-25T12:02:37;16.85;;;7.17;;
22435;SDS011;11385;50.822;4.324;2024-01-25T12:05:04;24.45;;;7.83;;
22435;SDS011;11385;50.822;4.324;2024-01-25T12:07:32;23.67;;;7.58;;
22435;SDS011;11385;50.822;4.324;2024-01-25T12:10:04;29.32;;;8.00;;
22435;SDS011;11385;50.822;4.324;2024-01-25T12:12:35;24.57;;;8.75;;
22435;SDS011;11385;50.822;4.324;2024-01-25T12:15:04;23.00;;;7.80;;
22435;SDS011;11385;50.822;4.324;2024-01-25T12:17:33;23.60;;;8.13;;
22435;SDS011;11385;50.822;4.324;2024-01-25T12:20:02;47.43;;;21.17;;
22435;SDS011;11385;50.822;4.324;2024-01-25T12:22:31;43.87;;;19.25;;
22435;SDS011;11385;50.822;4.324;2024-01-25T12:24:58;27.45;;;11.12;;
22435;SDS011;11385;50.822;4.324;2024-01-25T12:27:25;24.00;;;10.63;;
22435;SDS011;11385;50.822;4.324;2024-01-25T12:29:53;26.23;;;10.88;;
22435;SDS011;11385;50.822;4.324;2024-01-25T12:32:20;25.80;;;9.45;;
22435;SDS011;11385;50.822;4.324;2024-01-25T12:35:02;26.20;;;9.40;;
22435;SDS011;11385;50.822;4.324;2024-01-25T12:37:32;26.80;;;8.83;;
22435;SDS011;11385;50.822;4.324;2024-01-25T12:39:58;21.15;;;8.15;;
22435;SDS011;11385;50.822;4.324;2024-01-25T12:42:25;19.15;;;8.15;;
22435;SDS011;11385;50.822;4.324;2024-01-25T12:44:52;17.73;;;7.55;;
22435;SDS011;11385;50.822;4.324;2024-01-25T12:47:20;20.17;;;7.85;;
22435;SDS011;11385;50.822;4.324;2024-01-25T12:49:47;22.48;;;7.67;;
22435;SDS011;11385;50.822;4.324;2024-01-25T12:52:14;16.15;;;6.90;;
22435;SDS011;11385;50.822;4.324;2024-01-25T12:54:41;18.42;;;6.85;;
22435;SDS011;11385;50.822;4.324;2024-01-25T12:57:08;20.37;;;6.87;;
22435;SDS011;11385;50.822;4.324;2024-01-25T12:59:35;13.83;;;6.22;;
22435;SDS011;11385;50.822;4.324;2024-01-25T13:02:04;17.52;;;6.30;;
22435;SDS011;11385;50.822;4.324;2024-01-25T13:04:32;18.82;;;6.92;;
22435;SDS011;11385;50.822;4.324;2024-01-25T13:06:59;17.57;;;6.80;;
22435;SDS011;11385;50.822;4.324;2024-01-25T13:09:26;16.02;;;6.12;;
22435;SDS011;11385;50.822;4.324;2024-01-25T13:11:55;15.40;;;6.55;;
22435;SDS011;11385;50.822;4.324;2024-01-25T13:14:21;13.70;;;6.00;;
22435;SDS011;11385;50.822;4.324;2024-01-25T13:16:48;12.37;;;5.92;;
22435;SDS011;11385;50.822;4.324;2024-01-25T13:19:14;12.88;;;6.33;;
22435;SDS011;11385;50.822;4.324;2024-01-25T13:21:41;13.40;;;6.25;;
22435;SDS011;11385;50.822;4.324;2024-01-25T13:24:08;19.77;;;6.78;;
22435;SDS011;11385;50.822;4.324;2024-01-25T13:26:35;13.62;;;6.28;;
22435;SDS011;11385;50.822;4.324;2024-01-25T13:29:02;12.05;;;6.40;;
22435;SDS011;11385;50.822;4.324;2024-01-25T13:31:29;15.72;;;6.87;;
22435;SDS011;11385;50.822;4.324;2024-01-25T13:33:56;12.85;;;6.85;;
22435;SDS011;11385;50.822;4.324;2024-01-25T13:36:22;12.68;;;6.00;;
22435;SDS011;11385;50.822;4.324;2024-01-25T13:38:49;12.03;;;6.17;;
22435;SDS011;11385;50.822;4.324;2024-01-25T13:41:16;10.32;;;5.95;;
22435;SDS011;11385;50.822;4.324;2024-01-25T13:43:42;17.42;;;7.25;;
22435;SDS011;11385;50.822;4.324;2024-01-25T13:46:09;46.50;;;24.72;;
22435;SDS011;11385;50.822;4.324;2024-01-25T13:48:35;13.15;;;8.18;;
22435;SDS011;11385;50.822;4.324;2024-01-25T13:51:02;14.40;;;6.92;;
22435;SDS011;11385;50.822;4.324;2024-01-25T13:53:29;23.00;;;14.50;;
22435;SDS011;11385;50.822;4.324;2024-01-25T13:55:55;17.48;;;10.00;;
22435;SDS011;11385;50.822;4.324;2024-01-25T13:58:22;15.15;;;7.30;;
22435;SDS011;11385;50.822;4.324;2024-01-25T14:00:49;11.78;;;7.35;;
22435;SDS011;11385;50.822;4.324;2024-01-25T14:03:15;13.62;;;8.63;;
22435;SDS011;11385;50.822;4.324;2024-01-25T14:05:42;14.33;;;8.38;;
22435;SDS011;11385;50.822;4.324;2024-01-25T14:08:09;18.30;;;9.68;;
22435;SDS011;11385;50.822;4.324;2024-01-25T14:10:36;16.70;;;9.30;;
22435;SDS011;11385;50.822;4.324;2024-01-25T14:13:02;16.42;;;10.13;;
22435;SDS011;11385;50.822;4.324;2024-01-25T14:15:29;19.05;;;10.32;;
22435;SDS011;11385;50.822;4.324;2024-01-25T14:17:56;16.87;;;10.30;;
22435;SDS011;11385;50.822;4.324;2024-01-25T14:20:22;22.75;;;11.33;;
22435;SDS011;11385;50.822;4.324;2024-01-25T14:22:49;20.40;;;10.78;;
22435;SDS011;11385;50.822;4.324;2024-01-25T14:25:16;23.90;;;11.60;;
22435;SDS011;11385;50.822;4.324;2024-01-25T14:27:42;18.62;;;10.58;;
22435;SDS011;11385;50.822;4.324;2024-01-25T14:30:09;19.05;;;10.13;;
22435;SDS011;11385;50.822;4.324;2024-01-25T14:32:36;21.07;;;11.10;;
22435;SDS011;11385;50.822;4.324;2024-01-25T14:35:03;21.48;;;10.90;;